createdAt,value
2019-03-06T00:01:11.823Z,99.90
2019-03-06T00:03:59.546Z,99.90
2019-03-06T00:06:47.203Z,99.90
2019-03-06T00:09:34.382Z,99.90
2019-03-06T00:12:22.015Z,99.90
2019-03-06T00:15:09.353Z,99.90
2019-03-06T00:17:56.884Z,99.90
2019-03-06T00:20:44.410Z,99.90
2019-03-06T00:23:31.586Z,99.90
2019-03-06T00:26:19.449Z,99.90
2019-03-06T00:29:07.105Z,99.90
2019-03-06T00:31:54.459Z,99.90
2019-03-06T00:34:42.299Z,99.90
2019-03-06T00:37:29.946Z,99.90
2019-03-06T00:40:27.524Z,99.90
2019-03-06T00:43:15.082Z,99.90
2019-03-06T00:46:02.781Z,99.90
2019-03-06T00:48:50.034Z,99.90
2019-03-06T00:51:37.443Z,99.90
2019-03-06T00:54:25.055Z,99.90
2019-03-06T00:57:12.616Z,99.90
2019-03-06T01:00:00.434Z,99.90
2019-03-06T01:02:48.097Z,99.90
2019-03-06T01:05:35.638Z,99.90
2019-03-06T01:08:23.351Z,99.90
2019-03-06T01:11:10.592Z,99.90
2019-03-06T01:13:58.297Z,99.90
2019-03-06T01:16:46.065Z,99.90
2019-03-06T01:19:33.371Z,99.90
2019-03-06T01:22:21.033Z,99.90
2019-03-06T01:25:09.087Z,99.90
2019-03-06T01:27:56.825Z,99.90
2019-03-06T01:30:44.358Z,99.90
2019-03-06T01:33:46.605Z,99.90
2019-03-06T01:36:44.626Z,99.90
2019-03-06T01:39:47.839Z,99.90
2019-03-06T01:43:06.695Z,99.90
2019-03-06T01:45:54.233Z,99.90
2019-03-06T01:48:41.858Z,99.90
2019-03-06T01:51:29.262Z,99.90
2019-03-06T01:54:16.422Z,99.90
2019-03-06T01:57:03.788Z,99.90
2019-03-06T01:59:51.431Z,99.90
2019-03-06T02:02:40.206Z,99.90
2019-03-06T02:05:33.465Z,99.90
2019-03-06T02:08:21.420Z,99.90
2019-03-06T02:11:08.719Z,99.90
2019-03-06T02:13:56.337Z,99.90
2019-03-06T02:16:43.778Z,99.90
2019-03-06T02:19:31.585Z,99.90
2019-03-06T02:22:19.433Z,99.90
2019-03-06T02:25:07.194Z,99.90
2019-03-06T02:27:54.607Z,99.90
2019-03-06T02:30:42.135Z,99.90
2019-03-06T02:33:29.671Z,99.90
2019-03-06T02:36:17.449Z,99.90
2019-03-06T02:39:06.187Z,99.90
2019-03-06T02:41:53.956Z,99.90
2019-03-06T02:44:41.219Z,99.90
2019-03-06T02:47:28.506Z,99.90
2019-03-06T02:50:16.141Z,99.90
2019-03-06T02:53:04.182Z,99.90
2019-03-06T02:55:51.465Z,99.90
2019-03-06T02:58:45.612Z,99.90
2019-03-06T03:01:58.237Z,99.90
2019-03-06T03:04:58.871Z,99.90
2019-03-06T03:07:50.703Z,99.90
2019-03-06T03:10:39.565Z,99.90
2019-03-06T03:13:29.928Z,99.90
2019-03-06T03:16:19.622Z,99.90
2019-03-06T03:19:10.078Z,99.90
2019-03-06T03:22:05.129Z,99.90
2019-03-06T03:24:55.818Z,99.90
2019-03-06T03:27:46.415Z,99.90
2019-03-06T03:30:34.691Z,99.90
2019-03-06T03:33:44.862Z,99.90
2019-03-06T03:36:34.527Z,99.90
2019-03-06T03:39:24.925Z,99.90
2019-03-06T03:42:16.426Z,99.90
2019-03-06T03:45:05.084Z,99.90
2019-03-06T03:47:56.728Z,99.90
2019-03-06T03:50:46.179Z,99.90
2019-03-06T03:53:34.163Z,99.90
2019-03-06T03:56:23.708Z,99.90
2019-03-06T03:59:14.904Z,99.90
2019-03-06T04:02:17.494Z,99.90
2019-03-06T04:05:09.623Z,99.90
2019-03-06T04:07:57.426Z,99.90
2019-03-06T04:11:04.747Z,99.90
2019-03-06T04:13:53.192Z,99.90
2019-03-06T04:16:43.190Z,99.90
2019-03-06T04:19:31.954Z,99.90
2019-03-06T04:22:19.976Z,99.90
2019-03-06T04:25:07.614Z,99.90
2019-03-06T04:27:55.133Z,99.90
2019-03-06T04:30:42.850Z,99.90
2019-03-06T04:33:30.434Z,99.90
2019-03-06T04:36:41.176Z,99.90
2019-03-06T04:39:34.328Z,99.90
2019-03-06T04:42:22.876Z,99.90
2019-03-06T04:45:11.032Z,99.90
2019-03-06T04:48:10.038Z,99.90
2019-03-06T04:50:58.124Z,99.90
2019-03-06T04:53:50.581Z,99.90
2019-03-06T04:56:40.204Z,99.90
2019-03-06T04:59:33.668Z,99.90
2019-03-06T05:02:24.064Z,99.90
2019-03-06T05:05:12.303Z,99.90
2019-03-06T05:08:00.269Z,99.90
2019-03-06T05:10:47.652Z,99.90
2019-03-06T05:13:34.962Z,99.90
2019-03-06T05:16:30.149Z,99.90
2019-03-06T05:19:17.810Z,99.90
2019-03-06T05:22:05.332Z,99.90
2019-03-06T05:24:52.381Z,99.90
2019-03-06T05:27:39.357Z,99.90
2019-03-06T05:30:27.733Z,99.90
2019-03-06T05:33:15.445Z,99.90
2019-03-06T05:36:44.006Z,99.90
2019-03-06T05:39:32.020Z,99.90
2019-03-06T05:42:19.737Z,99.90
2019-03-06T05:45:07.458Z,99.90
2019-03-06T05:47:55.070Z,99.90
2019-03-06T05:50:42.585Z,99.90
2019-03-06T05:53:29.673Z,99.90
2019-03-06T05:56:16.735Z,99.90
2019-03-06T05:59:04.275Z,99.90
2019-03-06T06:01:52.191Z,99.90
2019-03-06T06:04:39.685Z,99.90
2019-03-06T06:07:27.455Z,99.90
2019-03-06T06:10:15.314Z,99.90
2019-03-06T06:13:02.665Z,99.90
2019-03-06T06:15:49.838Z,99.90
2019-03-06T06:18:37.495Z,99.90
2019-03-06T06:21:42.231Z,99.90
2019-03-06T06:24:31.139Z,99.90
2019-03-06T06:27:18.719Z,99.90
2019-03-06T06:30:07.024Z,99.90
2019-03-06T06:32:54.558Z,99.90
2019-03-06T06:35:42.911Z,99.90
2019-03-06T06:38:30.280Z,99.90
2019-03-06T06:41:18.181Z,99.90
2019-03-06T06:44:06.246Z,99.90
2019-03-06T06:46:53.839Z,99.90
2019-03-06T06:49:41.434Z,99.90
2019-03-06T06:52:50.120Z,99.90
2019-03-06T06:56:14.998Z,99.90
2019-03-06T06:59:30.673Z,99.90
2019-03-06T07:03:00.412Z,99.90
2019-03-06T07:05:56.458Z,99.90
2019-03-06T07:08:59.906Z,99.90
2019-03-06T07:12:10.985Z,99.90
2019-03-06T07:15:14.770Z,99.90
2019-03-06T07:18:14.617Z,99.90
2019-03-06T07:21:10.557Z,99.90
2019-03-06T07:24:15.757Z,99.90
2019-03-06T07:27:27.500Z,99.90
2019-03-06T07:30:53.731Z,99.90
2019-03-06T07:33:58.789Z,99.90
2019-03-06T07:36:54.690Z,99.90
2019-03-06T07:39:52.239Z,99.90
2019-03-06T07:43:04.986Z,99.90
2019-03-06T07:46:15.485Z,99.90
2019-03-06T07:49:22.101Z,99.90
2019-03-06T07:52:26.554Z,99.90
2019-03-06T07:55:48.282Z,99.90
2019-03-06T07:58:51.266Z,99.90
2019-03-06T08:01:45.788Z,99.90
2019-03-06T08:04:34.644Z,99.90
2019-03-06T08:07:22.433Z,99.90
2019-03-06T08:10:14.280Z,99.90
2019-03-06T08:13:07.567Z,99.90
2019-03-06T08:16:03.530Z,99.90
2019-03-06T08:19:18.976Z,99.90
2019-03-06T08:22:21.749Z,99.90
2019-03-06T08:25:31.874Z,99.90
2019-03-06T08:28:19.475Z,99.90
2019-03-06T08:31:19.342Z,99.90
2019-03-06T08:34:06.639Z,99.90
2019-03-06T08:36:54.320Z,99.90
2019-03-06T08:39:41.934Z,99.90
2019-03-06T08:42:28.986Z,99.90
2019-03-06T08:45:18.681Z,99.90
2019-03-06T08:48:12.884Z,99.90
2019-03-06T08:51:18.218Z,99.90
2019-03-06T08:54:17.356Z,99.90
2019-03-06T08:57:22.872Z,99.90
2019-03-06T09:00:40.180Z,99.90
2019-03-06T09:03:56.027Z,99.90
2019-03-06T09:07:01.372Z,99.90
2019-03-06T09:10:13.356Z,99.90
2019-03-06T09:13:20.142Z,99.90
2019-03-06T09:16:38.401Z,99.90
2019-03-06T09:19:35.242Z,99.90
2019-03-06T09:22:54.055Z,99.90
2019-03-06T09:25:57.584Z,99.90
2019-03-06T09:29:01.120Z,99.90
2019-03-06T09:32:04.250Z,99.90
2019-03-06T09:35:13.370Z,99.90
2019-03-06T09:38:14.522Z,99.90
2019-03-06T09:41:24.445Z,99.90
2019-03-06T09:44:24.502Z,99.90
2019-03-06T09:47:26.417Z,99.90
2019-03-06T09:50:32.004Z,99.90
2019-03-06T09:53:28.711Z,99.90
2019-03-06T09:56:41.330Z,99.90
2019-03-06T09:59:49.289Z,99.90
2019-03-06T10:02:48.503Z,99.90
2019-03-06T10:05:46.408Z,99.90
2019-03-06T10:08:51.620Z,99.90
2019-03-06T10:11:45.887Z,99.90
2019-03-06T10:14:41.909Z,99.90
2019-03-06T10:17:33.771Z,99.90
2019-03-06T10:20:25.339Z,99.90
2019-03-06T10:23:11.738Z,99.90
2019-03-06T10:26:00.000Z,99.90
2019-03-06T10:28:47.791Z,99.90
2019-03-06T10:31:35.559Z,99.90
2019-03-06T10:34:22.974Z,99.90
2019-03-06T10:37:10.540Z,99.90
2019-03-06T10:39:57.856Z,99.90
2019-03-06T10:42:45.891Z,99.90
2019-03-06T10:45:41.336Z,99.90
2019-03-06T10:48:22.433Z,99.90
2019-03-06T10:51:10.389Z,99.90
2019-03-06T10:53:57.974Z,99.90
2019-03-06T10:56:46.222Z,99.90
2019-03-06T10:59:34.311Z,99.90
2019-03-06T11:02:21.960Z,99.90
2019-03-06T11:05:17.073Z,99.90
2019-03-06T11:08:05.958Z,99.90
2019-03-06T11:10:54.502Z,99.90
2019-03-06T11:13:42.049Z,99.90
2019-03-06T11:16:31.701Z,99.90
2019-03-06T11:19:19.809Z,99.90
2019-03-06T11:22:09.391Z,99.90
2019-03-06T11:24:57.865Z,99.90
2019-03-06T11:27:45.086Z,99.90
2019-03-06T11:30:40.157Z,99.90
2019-03-06T11:33:28.147Z,99.90
2019-03-06T11:36:16.190Z,99.90
2019-03-06T11:39:05.638Z,99.90
2019-03-06T11:41:53.440Z,99.90
2019-03-06T11:44:41.057Z,99.90
2019-03-06T11:47:28.956Z,99.90
2019-03-06T11:50:17.069Z,99.90
2019-03-06T11:53:04.998Z,99.90
2019-03-06T11:55:52.423Z,99.90
2019-03-06T11:58:40.359Z,99.90
2019-03-06T12:01:30.024Z,99.90
2019-03-06T12:04:17.665Z,99.90
2019-03-06T12:07:06.045Z,99.90
2019-03-06T12:09:53.925Z,99.50
2019-03-06T12:12:41.520Z,98.70
2019-03-06T12:15:29.229Z,96.30
2019-03-06T12:18:17.695Z,99.40
2019-03-06T12:21:05.646Z,97.90
2019-03-06T12:23:52.980Z,97.50
2019-03-06T12:26:40.915Z,99.40
2019-03-06T12:29:28.539Z,99.90
2019-03-06T12:32:16.135Z,96.20
2019-03-06T12:35:03.586Z,99.40
2019-03-06T12:37:51.162Z,97.20
2019-03-06T12:40:38.354Z,92.40
2019-03-06T12:43:26.118Z,92.20
2019-03-06T12:46:23.306Z,94.20
2019-03-06T12:49:09.332Z,90.40
2019-03-06T12:51:57.021Z,81.10
2019-03-06T12:54:47.648Z,79.60
2019-03-06T12:57:35.025Z,83.90
2019-03-06T13:00:23.744Z,78.50
2019-03-06T13:03:11.726Z,76.90
2019-03-06T13:06:00.234Z,82.20
2019-03-06T13:08:50.758Z,78.80
2019-03-06T13:11:40.001Z,75.10
2019-03-06T13:14:30.570Z,87.90
2019-03-06T13:17:46.171Z,78.90
2019-03-06T13:20:37.487Z,73.40
2019-03-06T13:23:27.459Z,66.60
2019-03-06T13:26:23.615Z,68.10
2019-03-06T13:29:19.019Z,81.80
2019-03-06T13:32:11.611Z,75.20
2019-03-06T13:35:00.658Z,77.80
2019-03-06T13:37:48.416Z,74.10
2019-03-06T13:40:36.195Z,66.80
2019-03-06T13:43:23.728Z,76.60
2019-03-06T13:46:11.046Z,71.60
2019-03-06T13:48:58.466Z,82.20
2019-03-06T13:51:45.963Z,81.10
2019-03-06T13:54:33.282Z,83.10
2019-03-06T13:57:20.935Z,83.20
2019-03-06T14:00:16.959Z,86.30
2019-03-06T14:03:04.531Z,90.20
2019-03-06T14:05:51.926Z,88.40
2019-03-06T14:08:40.160Z,81.30
2019-03-06T14:11:29.132Z,77.70
2019-03-06T14:14:17.592Z,82.70
2019-03-06T14:17:07.255Z,76.20
2019-03-06T14:19:54.977Z,79.60
2019-03-06T14:22:42.435Z,73.90
2019-03-06T14:25:30.085Z,67.60
2019-03-06T14:28:17.737Z,70.50
2019-03-06T14:31:05.614Z,71.00
2019-03-06T14:33:53.289Z,75.70
2019-03-06T14:36:41.746Z,77.30
2019-03-06T14:39:30.732Z,75.80
2019-03-06T14:42:18.105Z,75.10
2019-03-06T14:45:06.323Z,80.70
2019-03-06T14:47:53.699Z,85.80
2019-03-06T14:50:44.168Z,82.10
2019-03-06T14:53:32.075Z,80.50
2019-03-06T14:56:19.481Z,80.40
2019-03-06T14:59:07.154Z,85.80
2019-03-06T15:01:54.747Z,85.80
2019-03-06T15:04:42.023Z,81.70
2019-03-06T15:07:29.437Z,84.90
2019-03-06T15:10:17.024Z,83.20
2019-03-06T15:13:04.814Z,84.00
2019-03-06T15:15:53.337Z,85.00
2019-03-06T15:18:51.111Z,83.90
2019-03-06T15:21:44.161Z,85.10
2019-03-06T15:24:40.984Z,85.20
2019-03-06T15:27:30.179Z,90.00
2019-03-06T15:30:19.038Z,88.50
2019-03-06T15:33:09.409Z,90.00
2019-03-06T15:36:08.321Z,88.20
2019-03-06T15:39:01.288Z,88.60
2019-03-06T15:42:00.076Z,90.00
2019-03-06T15:44:43.604Z,90.30
2019-03-06T15:47:33.847Z,91.30
2019-03-06T15:50:20.450Z,92.00
2019-03-06T15:53:08.012Z,92.40
2019-03-06T15:55:56.610Z,92.20
2019-03-06T15:58:44.200Z,92.10
2019-03-06T16:01:33.274Z,92.40
2019-03-06T16:04:20.645Z,93.00
2019-03-06T16:07:08.030Z,93.60
2019-03-06T16:09:56.082Z,92.80
2019-03-06T16:12:43.820Z,95.20
2019-03-06T16:15:31.721Z,94.70
2019-03-06T16:18:19.244Z,95.00
2019-03-06T16:21:07.504Z,95.10
2019-03-06T16:23:54.789Z,94.00
2019-03-06T16:26:42.210Z,95.70
2019-03-06T16:29:29.699Z,95.00
2019-03-06T16:32:17.996Z,94.00
2019-03-06T16:35:06.153Z,95.10
2019-03-06T16:37:54.100Z,94.90
2019-03-06T16:40:41.644Z,95.50
2019-03-06T16:43:28.965Z,95.80
2019-03-06T16:46:16.312Z,96.40
2019-03-06T16:49:04.059Z,96.70
2019-03-06T16:51:51.724Z,97.00
2019-03-06T16:54:38.897Z,98.70
2019-03-06T16:57:25.960Z,99.00
2019-03-06T17:00:20.013Z,99.40
2019-03-06T17:03:07.626Z,99.90
2019-03-06T17:05:55.501Z,99.90
2019-03-06T17:08:43.209Z,99.90
2019-03-06T17:11:30.747Z,99.90
2019-03-06T17:14:18.499Z,99.90
2019-03-06T17:17:06.231Z,99.90
2019-03-06T17:19:53.627Z,99.90
2019-03-06T17:22:40.635Z,99.90
2019-03-06T17:25:29.079Z,99.90
2019-03-06T17:28:23.012Z,99.90
2019-03-06T17:31:10.837Z,99.90
2019-03-06T17:33:58.090Z,99.90
2019-03-06T17:36:45.453Z,99.90
2019-03-06T17:39:33.305Z,99.90
2019-03-06T17:42:20.633Z,99.90
2019-03-06T17:45:09.151Z,99.90
2019-03-06T17:47:56.394Z,99.90
2019-03-06T17:50:43.960Z,99.90
2019-03-06T17:53:31.259Z,99.90
2019-03-06T17:56:18.643Z,99.90
2019-03-06T17:59:06.414Z,99.90
2019-03-06T18:01:53.542Z,99.90
2019-03-06T18:04:41.214Z,99.90
2019-03-06T18:07:29.982Z,99.90
2019-03-06T18:10:18.050Z,99.90
2019-03-06T18:13:05.662Z,99.90
2019-03-06T18:15:53.069Z,99.90
2019-03-06T18:18:40.281Z,99.90
2019-03-06T18:21:28.176Z,99.90
2019-03-06T18:24:15.555Z,99.90
2019-03-06T18:27:02.835Z,99.90
2019-03-06T18:29:50.538Z,99.90
2019-03-06T18:32:38.427Z,99.90
2019-03-06T18:35:26.256Z,99.90
2019-03-06T18:38:13.741Z,99.90
2019-03-06T18:41:01.419Z,99.90
2019-03-06T18:43:48.687Z,99.90
2019-03-06T18:46:36.360Z,99.90
2019-03-06T18:49:23.964Z,99.90
2019-03-06T18:52:12.782Z,99.90
2019-03-06T18:55:01.418Z,99.90
2019-03-06T18:57:49.519Z,99.90
2019-03-06T19:00:37.469Z,99.90
2019-03-06T19:03:24.683Z,99.90
2019-03-06T19:06:11.850Z,99.90
2019-03-06T19:08:59.315Z,99.90
2019-03-06T19:11:46.426Z,99.90
2019-03-06T19:14:34.254Z,99.90
2019-03-06T19:17:21.835Z,99.90
2019-03-06T19:20:10.041Z,99.90
2019-03-06T19:22:58.798Z,99.90
2019-03-06T19:25:46.561Z,99.90
2019-03-06T19:28:33.992Z,99.90
2019-03-06T19:31:21.655Z,99.90
2019-03-06T19:34:12.656Z,99.90
2019-03-06T19:37:00.236Z,99.90
2019-03-06T19:39:47.725Z,99.90
2019-03-06T19:42:35.241Z,99.90
2019-03-06T19:45:22.975Z,99.90
2019-03-06T19:48:12.515Z,99.90
2019-03-06T19:51:01.553Z,99.90
2019-03-06T19:53:48.868Z,99.90
2019-03-06T19:56:36.603Z,99.90
2019-03-06T19:59:24.318Z,99.90
2019-03-06T20:02:12.143Z,99.90
2019-03-06T20:04:59.759Z,99.90
2019-03-06T20:07:47.564Z,99.90
2019-03-06T20:10:35.310Z,99.90
2019-03-06T20:13:23.022Z,99.90
2019-03-06T20:16:10.563Z,99.90
2019-03-06T20:18:58.405Z,99.90
2019-03-06T20:21:45.656Z,99.90
2019-03-06T20:24:33.057Z,99.90
2019-03-06T20:27:21.266Z,99.90
2019-03-06T20:30:10.078Z,99.90
2019-03-06T20:32:57.762Z,99.90
2019-03-06T20:35:45.246Z,99.90
2019-03-06T20:38:32.975Z,99.90
2019-03-06T20:41:20.463Z,99.90
2019-03-06T20:44:12.475Z,99.90
2019-03-06T20:47:02.454Z,99.90
2019-03-06T20:49:54.958Z,99.90
2019-03-06T20:52:50.686Z,99.90
2019-03-06T21:35:48.821Z,99.90
2019-03-06T22:05:22.046Z,99.90
2019-03-06T22:08:10.247Z,99.90
2019-03-06T22:10:57.804Z,99.90
2019-03-06T22:13:46.420Z,99.90
2019-03-06T22:16:34.215Z,99.90
2019-03-06T22:19:21.847Z,99.90
2019-03-06T22:22:09.586Z,99.90
2019-03-06T22:24:57.454Z,99.90
2019-03-06T22:27:44.982Z,99.90
2019-03-06T22:30:32.649Z,99.90
2019-03-06T22:33:20.551Z,99.90
2019-03-06T22:36:08.389Z,99.90
2019-03-06T22:38:55.495Z,99.90
2019-03-06T22:41:43.640Z,99.90
2019-03-06T22:44:31.502Z,99.90
2019-03-06T22:47:19.101Z,99.90
2019-03-06T22:50:07.923Z,99.90
2019-03-06T22:52:55.334Z,99.90
2019-03-06T22:55:43.074Z,99.90
2019-03-06T22:58:30.177Z,99.90
2019-03-06T23:01:21.486Z,99.90
2019-03-06T23:04:09.195Z,99.90
2019-03-06T23:06:56.794Z,99.90
2019-03-06T23:09:44.639Z,99.90
2019-03-06T23:12:32.498Z,99.90
2019-03-06T23:15:19.893Z,99.90
2019-03-06T23:18:07.486Z,99.90
2019-03-06T23:23:31.315Z,99.90
2019-03-06T23:26:18.630Z,99.90
2019-03-06T23:29:06.462Z,99.90
2019-03-06T23:31:54.525Z,99.90
2019-03-06T23:34:42.136Z,99.90
2019-03-06T23:37:29.510Z,99.90
2019-03-06T23:40:16.994Z,99.90
2019-03-06T23:43:04.884Z,99.90
2019-03-06T23:45:52.374Z,99.90
2019-03-06T23:48:39.473Z,99.90
2019-03-06T23:51:34.658Z,99.90
2019-03-06T23:54:22.256Z,99.90
2019-03-06T23:57:10.370Z,99.90
2019-03-06T23:59:57.967Z,99.90
